Airfield :
LOGIN :

Register | Disclaimer

   EN    FR    IT 

 










Legend :    VFR   Marginal VFR   IFR   Intensive IFR   Very Intensive IFR
Visi :
Ceiling :
>= 8 km
>= 3000ft
5 to 8 km
1000 to 3000 ft
1500m to 5 km
500 to 1000 ft
800 to 1500m
200 to 500 ft
< 800m
< 200 ft
Symbols :   Thunderstorms  Fog  Heavy snow  Heavy precipitations  Wind > 20 kt
SIGMETs :     Misc.  Thunderstorms  Icing  Turbulence  Mountain Waves  Volcanic Ashes






- Airport Elevation : 915 ft
- IATA code : LUG


LSZA - Lugano

CURRENT METAR :
  • 112120Z AUTO VRB01KT 9999 SCT100 SCT110 BKN120 03/00 Q1009

EXPIRED METARs :
  • 112050Z AUTO VRB02KT 9999 FEW095 SCT100 BKN110 04/00 Q1009
  • 112020Z AUTO VRB02KT 9999 BKN100 SCT110 04/M00 Q1009
  • 111950Z AUTO VRB02KT 9999 FEW100 SCT110 BKN120 04/00 Q1010
  • 111920Z AUTO VRB01KT 9999 SCT110 BKN120 04/M00 Q1010
  • 111850Z VRB03KT 9999 BKN110 04/00 Q1010 NOSIG
  • 111820Z VRB01KT 9999 BKN110 04/M00 Q1010 NOSIG

TAF TAF LSZA
Valid from the 11 at 15:00 until the 12 at 00:00 UTC


111425Z 1115/1124 VRB03KT CAVOK
BECMG 1115/1118 9999 BKN080
ATIS : +41 22 417 40 88



MET'MAP, your aeronautical weather chart ! - Copyright ORBIFLY December 2007 - Disclaimer

ORBIFLY MET'MAP TEAM :

Programming & Development : Alexandra Zaïnal
Concept & original design : Baudouin d'Aumeries
Assistance for programming : Marc-Olivier Méhu
Technical & hardware support : Manuel Goepfert

Contact : metmap@orbifly.com




SOURCES & CREDITS :

   NOAA